Time;durP1;ratioP1;P1;durP2;ratioP2;P2;SDS_P1;SDS_P2;PMS_P1;PMS_P2;Temp;Humidity;BMP_temperature;BMP_pressure;BME280_temperature;BME280_humidity;BME280_pressure;Samples;Min_cycle;Max_cycle;Signal;HPM_P1;HPM_P2
2021/01/13 00:02:15;;;;;;;16.75;2.80;;;3.00;90.00;;;;;;4987658;28;20591;-51
2021/01/13 00:04:41;;;;;;;14.95;2.25;;;2.90;90.00;;;;;;4991045;28;20038;-51
2021/01/13 00:07:07;;;;;;;11.70;1.90;;;2.90;90.10;;;;;;4992492;28;20042;-55
2021/01/13 00:09:32;;;;;;;11.77;1.75;;;2.90;90.10;;;;;;4989501;28;20491;-54
2021/01/13 00:11:59;;;;;;;18.17;1.80;;;2.80;90.10;;;;;;4964573;28;20035;-52
2021/01/13 00:14:27;;;;;;;12.52;1.77;;;2.80;90.10;;;;;;4990624;28;20042;-52
2021/01/13 00:16:53;;;;;;;11.02;1.70;;;2.80;90.20;;;;;;4983121;28;20042;-52
2021/01/13 00:19:20;;;;;;;8.82;1.55;;;2.80;90.20;;;;;;4993618;28;20051;-49
2021/01/13 00:21:53;;;;;;;17.17;1.92;;;2.80;90.20;;;;;;4982928;28;20034;-49
2021/01/13 00:24:40;;;;;;;14.07;2.33;;;2.80;90.10;;;;;;4985274;28;20042;-50
2021/01/13 00:31:18;;;;;;;13.00;1.70;;;2.90;89.70;;;;;;4975534;28;20082;-51
2021/01/13 00:33:52;;;;;;;13.15;1.80;;;3.00;89.40;;;;;;4984623;28;20039;-49
2021/01/13 00:36:36;;;;;;;15.93;2.42;;;3.00;89.20;;;;;;4986026;28;20105;-49
2021/01/13 00:39:09;;;;;;;11.23;1.98;;;3.00;89.10;;;;;;4985458;28;20425;-48
2021/01/13 00:41:38;;;;;;;10.65;2.15;;;3.10;89.10;;;;;;4979415;28;20042;-49
2021/01/13 00:44:04;;;;;;;16.25;2.28;;;3.10;89.10;;;;;;4976243;28;20038;-49
2021/01/13 00:46:41;;;;;;;9.98;1.65;;;3.10;89.30;;;;;;4981761;28;20045;-49
2021/01/13 00:49:08;;;;;;;14.80;1.73;;;3.00;89.30;;;;;;4971718;28;20463;-51
2021/01/13 00:51:38;;;;;;;13.57;1.95;;;3.00;89.50;;;;;;4978056;28;20559;-51
2021/01/13 00:54:05;;;;;;;12.30;2.05;;;2.90;89.60;;;;;;4987811;28;20070;-48
2021/01/13 00:56:32;;;;;;;10.93;1.42;;;2.90;89.60;;;;;;4975981;28;20496;-48
2021/01/13 00:58:58;;;;;;;10.02;1.80;;;2.90;89.70;;;;;;4981158;28;20085;-51
2021/01/13 01:01:28;;;;;;;10.90;1.92;;;2.90;89.70;;;;;;4993217;28;20035;-48
2021/01/13 01:03:55;;;;;;;7.95;1.63;;;2.90;89.70;;;;;;4993810;28;20054;-51
2021/01/13 01:06:24;;;;;;;10.45;1.73;;;2.90;89.80;;;;;;4982175;28;20078;-51
2021/01/13 01:08:51;;;;;;;9.13;1.33;;;2.90;89.70;;;;;;4993750;28;20046;-51
2021/01/13 01:11:31;;;;;;;15.13;1.73;;;2.80;89.80;;;;;;4990735;28;20038;-55
2021/01/13 01:14:00;;;;;;;9.52;1.75;;;2.80;89.70;;;;;;4995812;28;20491;-52
2021/01/13 01:16:37;;;;;;;11.00;1.50;;;2.80;89.70;;;;;;4975526;28;20105;-49
2021/01/13 01:19:04;;;;;;;12.60;1.83;;;2.90;89.40;;;;;;4988353;28;20042;-49
2021/01/13 01:21:31;;;;;;;10.88;1.67;;;2.80;89.40;;;;;;4975630;28;20074;-50
2021/01/13 01:23:56;;;;;;;8.25;1.40;;;2.80;89.50;;;;;;4972097;28;20124;-53
2021/01/13 01:26:22;;;;;;;11.27;1.40;;;2.90;89.50;;;;;;4993990;28;20034;-50
2021/01/13 01:28:49;;;;;;;7.30;1.25;;;2.90;89.40;;;;;;4983512;28;20512;-51
2021/01/13 01:31:15;;;;;;;11.75;1.50;;;2.90;89.30;;;;;;4986976;28;20037;-50
2021/01/13 01:33:40;;;;;;;10.25;1.52;;;2.90;89.30;;;;;;4985112;28;20045;-49
2021/01/13 01:39:28;;;;;;;9.82;1.50;;;2.90;89.70;;;;;;4982581;28;20046;-55
2021/01/13 01:41:54;;;;;;;15.10;1.70;;;2.90;90.00;;;;;;4990368;28;20057;-52
2021/01/13 01:44:19;;;;;;;11.40;1.77;;;2.90;90.00;;;;;;4992237;28;20046;-53
2021/01/13 01:47:00;;;;;;;17.25;1.70;;;2.90;90.10;;;;;;4988651;28;20053;-50
2021/01/13 01:49:25;;;;;;;11.55;1.75;;;2.90;90.10;;;;;;4979529;28;20050;-51
2021/01/13 01:52:14;;;;;;;10.90;2.00;;;3.00;90.10;;;;;;4990676;28;20553;-52
2021/01/13 01:54:53;;;;;;;11.25;1.63;;;3.00;90.10;;;;;;4993281;28;20066;-49
2021/01/13 01:57:23;;;;;;;9.85;1.50;;;3.00;90.10;;;;;;4988179;28;20046;-54
2021/01/13 02:00:00;;;;;;;13.38;1.80;;;3.00;90.10;;;;;;4990322;28;20510;-52
2021/01/13 02:02:53;;;;;;;14.38;1.95;;;3.00;90.10;;;;;;4975165;28;20145;-52
2021/01/13 02:05:20;;;;;;;9.15;1.65;;;3.00;90.10;;;;;;4984851;28;20491;-53
2021/01/13 02:07:47;;;;;;;10.20;1.40;;;2.90;90.10;;;;;;4979495;28;20047;-50
2021/01/13 02:10:13;;;;;;;10.43;1.42;;;2.90;90.10;;;;;;4977105;28;20522;-53
2021/01/13 02:12:51;;;;;;;13.05;1.77;;;2.90;90.10;;;;;;4980524;28;20415;-54
2021/01/13 02:15:17;;;;;;;10.50;1.50;;;2.90;90.20;;;;;;4980589;28;20896;-50
2021/01/13 02:17:51;;;;;;;11.20;1.77;;;2.80;90.30;;;;;;4981580;28;20101;-53
2021/01/13 02:20:17;;;;;;;10.40;1.55;;;2.80;90.40;;;;;;4996077;28;20057;-50
2021/01/13 02:22:54;;;;;;;11.10;1.48;;;2.70;90.50;;;;;;4983422;28;20089;-51
2021/01/13 02:25:58;;;;;;;12.18;1.85;;;2.80;90.50;;;;;;4959818;28;20133;-54
2021/01/13 02:28:26;;;;;;;14.55;2.38;;;2.80;90.50;;;;;;4973497;28;20411;-50
2021/01/13 02:31:04;;;;;;;9.65;1.20;;;2.70;90.50;;;;;;4980611;28;20043;-51
2021/01/13 02:33:53;;;;;;;9.85;1.63;;;2.70;90.50;;;;;;4987781;28;20046;-50
2021/01/13 02:36:34;;;;;;;8.95;1.80;;;2.70;90.50;;;;;;4988574;28;20038;-53
2021/01/13 02:39:04;;;;;;;15.73;1.73;;;2.70;90.40;;;;;;4978275;28;20042;-51
2021/01/13 02:41:34;;;;;;;12.23;1.88;;;2.70;90.40;;;;;;4979690;28;20337;-52
2021/01/13 02:44:13;;;;;;;10.23;1.50;;;2.70;90.80;;;;;;4974136;28;20039;-54
2021/01/13 02:46:51;;;;;;;13.15;1.40;;;2.70;90.70;;;;;;4974446;28;20043;-50
2021/01/13 02:49:28;;;;;;;10.25;1.80;;;2.60;90.80;;;;;;4983203;28;20046;-51
2021/01/13 02:51:56;;;;;;;13.05;2.33;;;2.60;90.80;;;;;;4975224;28;20608;-50
2021/01/13 02:54:30;;;;;;;8.80;1.50;;;2.60;90.90;;;;;;4972173;28;20418;-54
2021/01/13 02:57:07;;;;;;;10.65;1.95;;;2.60;90.90;;;;;;4973049;28;20035;-51
2021/01/13 02:59:36;;;;;;;10.63;1.75;;;2.60;91.00;;;;;;4983961;28;20499;-49
2021/01/13 03:02:09;;;;;;;12.60;1.90;;;2.60;91.10;;;;;;4976665;28;20049;-55
2021/01/13 03:04:39;;;;;;;7.47;1.40;;;2.70;91.10;;;;;;4980244;28;20038;-53
2021/01/13 03:07:12;;;;;;;10.43;1.60;;;2.70;91.10;;;;;;4981723;28;20042;-55
2021/01/13 03:09:39;;;;;;;11.95;1.50;;;2.80;91.10;;;;;;4974845;28;20078;-51
2021/01/13 03:12:17;;;;;;;14.90;1.90;;;2.80;91.00;;;;;;4984652;28;20046;-55
2021/01/13 03:14:49;;;;;;;8.52;1.60;;;2.80;90.90;;;;;;4977476;28;20038;-52
2021/01/13 03:17:52;;;;;;;11.13;1.45;;;2.80;90.90;;;;;;4985727;28;20050;-52
2021/01/13 03:20:26;;;;;;;7.75;1.60;;;2.90;91.00;;;;;;4983908;28;20450;-52
2021/01/13 03:23:23;;;;;;;6.03;1.25;;;2.90;91.00;;;;;;4980105;28;20800;-51
2021/01/13 03:25:52;;;;;;;10.43;1.58;;;3.00;91.10;;;;;;4983070;28;20097;-50
2021/01/13 03:28:19;;;;;;;12.45;1.63;;;3.10;91.10;;;;;;4985068;28;20379;-51
2021/01/13 03:30:50;;;;;;;17.15;1.70;;;3.10;91.10;;;;;;4985723;28;20503;-55
2021/01/13 03:33:32;;;;;;;7.50;1.15;;;3.20;91.10;;;;;;4964409;28;20117;-52
2021/01/13 03:36:02;;;;;;;10.32;1.50;;;3.10;91.00;;;;;;4990389;28;20042;-51
2021/01/13 03:38:29;;;;;;;10.77;1.65;;;3.20;90.90;;;;;;4977387;28;20051;-55
2021/01/13 03:41:04;;;;;;;9.80;1.35;;;3.10;90.90;;;;;;4979213;28;20038;-54
2021/01/13 03:43:52;;;;;;;11.68;1.80;;;3.10;91.00;;;;;;4976742;28;20046;-51
2021/01/13 03:46:17;;;;;;;7.47;1.38;;;3.10;91.00;;;;;;4971553;28;20495;-51
2021/01/13 03:48:48;;;;;;;8.77;1.38;;;3.10;91.10;;;;;;4976757;28;20049;-53
2021/01/13 03:51:59;;;;;;;6.22;1.70;;;3.10;91.20;;;;;;4985583;28;20034;-52
2021/01/13 03:54:27;;;;;;;5.75;1.15;;;3.10;91.30;;;;;;4981115;28;20042;-51
2021/01/13 03:57:04;;;;;;;17.08;1.60;;;3.00;91.40;;;;;;4991245;28;20112;-51
2021/01/13 04:00:08;;;;;;;9.23;1.52;;;3.10;91.50;;;;;;4990342;28;20055;-51
2021/01/13 04:02:46;;;;;;;7.25;1.30;;;3.10;91.50;;;;;;4976692;28;20093;-54
2021/01/13 04:05:22;;;;;;;8.55;1.48;;;3.10;91.60;;;;;;4978716;28;20070;-51
2021/01/13 04:07:50;;;;;;;7.13;1.50;;;3.10;91.80;;;;;;4975290;28;20436;-55
2021/01/13 04:10:17;;;;;;;7.35;1.30;;;3.20;91.80;;;;;;4991422;28;20070;-52
2021/01/13 04:13:27;;;;;;;10.82;1.50;;;3.20;91.80;;;;;;4984864;28;20046;-51
2021/01/13 04:15:59;;;;;;;7.80;1.23;;;3.30;91.90;;;;;;4976953;28;20065;-55
2021/01/13 04:18:24;;;;;;;5.80;1.17;;;3.30;91.90;;;;;;4985610;28;20043;-53
2021/01/13 04:20:51;;;;;;;9.55;1.40;;;3.30;91.80;;;;;;4991003;28;20096;-51
2021/01/13 04:23:17;;;;;;;10.48;1.42;;;3.40;92.00;;;;;;4983907;28;20043;-51
2021/01/13 04:25:56;;;;;;;8.23;1.60;;;3.40;91.90;;;;;;4990693;28;20088;-55
2021/01/13 04:28:26;;;;;;;11.05;1.52;;;3.40;92.00;;;;;;4991124;28;20046;-51
2021/01/13 04:30:56;;;;;;;13.70;2.00;;;3.40;91.90;;;;;;4995271;28;20073;-54
2021/01/13 04:33:22;;;;;;;11.77;1.30;;;3.50;92.00;;;;;;4976898;28;20054;-53
2021/01/13 04:35:49;;;;;;;8.88;1.63;;;3.50;92.00;;;;;;4995146;28;20450;-55
2021/01/13 04:38:21;;;;;;;8.60;1.70;;;3.50;91.80;;;;;;4986094;28;20145;-51
2021/01/13 04:40:50;;;;;;;10.73;1.77;;;3.50;91.90;;;;;;4994202;28;20478;-51
2021/01/13 04:43:22;;;;;;;10.57;1.80;;;3.50;92.00;;;;;;4989944;28;20289;-55
2021/01/13 04:45:49;;;;;;;10.60;1.90;;;3.50;92.00;;;;;;4990577;28;20049;-54
2021/01/13 04:48:23;;;;;;;8.55;1.10;;;3.50;92.00;;;;;;4990958;28;20828;-54
2021/01/13 04:50:50;;;;;;;10.15;2.38;;;3.50;92.00;;;;;;4981953;28;20096;-55
2021/01/13 04:53:34;;;;;;;10.35;1.55;;;3.50;92.00;;;;;;4988062;28;20078;-54
2021/01/13 04:56:00;;;;;;;9.70;1.92;;;3.50;92.10;;;;;;4985614;28;20055;-54
2021/01/13 04:58:34;;;;;;;9.27;1.65;;;3.50;92.00;;;;;;4977334;28;20487;-54
2021/01/13 05:01:34;;;;;;;11.25;1.45;;;3.50;92.10;;;;;;4993518;28;20471;-54
2021/01/13 05:04:27;;;;;;;9.73;1.48;;;3.60;92.00;;;;;;4993940;28;20478;-54
2021/01/13 05:07:13;;;;;;;11.48;1.65;;;3.60;92.00;;;;;;4987193;28;20042;-54
2021/01/13 05:10:04;;;;;;;8.55;1.35;;;3.60;92.00;;;;;;4992426;28;20038;-52
2021/01/13 05:12:39;;;;;;;8.57;1.80;;;3.70;92.10;;;;;;4972132;28;20410;-51
2021/01/13 05:15:06;;;;;;;8.48;1.42;;;3.70;92.10;;;;;;4990499;28;20479;-52
2021/01/13 05:17:35;;;;;;;10.88;1.85;;;3.70;92.10;;;;;;4987438;28;20109;-51
2021/01/13 05:20:14;;;;;;;9.27;1.67;;;3.70;92.10;;;;;;4975475;28;20411;-52
2021/01/13 05:22:42;;;;;;;12.32;1.80;;;3.70;92.10;;;;;;4986655;28;20077;-54
2021/01/13 05:25:08;;;;;;;10.18;1.67;;;3.70;92.10;;;;;;4989506;28;20445;-55
2021/01/13 05:28:02;;;;;;;9.63;1.63;;;3.60;92.10;;;;;;4962993;28;20049;-54
2021/01/13 05:30:31;;;;;;;13.15;1.73;;;3.50;92.10;;;;;;4981030;28;20045;-54
2021/01/13 05:32:58;;;;;;;13.35;1.55;;;3.50;92.10;;;;;;4991907;28;20046;-57
2021/01/13 05:35:28;;;;;;;10.88;1.60;;;3.50;92.20;;;;;;4993418;28;20142;-54
2021/01/13 05:38:05;;;;;;;13.73;2.33;;;3.50;92.30;;;;;;4992885;28;20042;-57
2021/01/13 05:40:47;;;;;;;8.35;1.52;;;3.50;92.40;;;;;;4978634;28;20065;-55
2021/01/13 05:43:17;;;;;;;15.15;1.63;;;3.50;92.40;;;;;;4986793;28;20045;-55
2021/01/13 05:45:44;;;;;;;11.65;2.10;;;3.50;92.40;;;;;;4981025;28;20046;-55
2021/01/13 05:48:22;;;;;;;12.23;1.90;;;3.50;92.30;;;;;;4973769;28;20042;-54
2021/01/13 05:50:52;;;;;;;11.52;2.20;;;3.50;92.40;;;;;;4987614;28;20050;-53
2021/01/13 05:53:18;;;;;;;15.50;2.08;;;3.50;92.30;;;;;;4980431;28;20070;-54
2021/01/13 05:55:51;;;;;;;13.77;1.60;;;3.50;92.30;;;;;;4990963;28;20085;-54
2021/01/13 05:58:22;;;;;;;10.82;1.98;;;3.60;92.30;;;;;;4989038;28;20050;-54
2021/01/13 06:01:38;;;;;;;17.15;2.17;;;3.60;92.30;;;;;;4980141;28;20518;-54
2021/01/13 06:04:04;;;;;;;18.05;2.20;;;3.60;92.30;;;;;;4974746;28;20565;-55
2021/01/13 06:06:38;;;;;;;9.38;1.58;;;3.70;92.30;;;;;;4986712;28;20050;-55
2021/01/13 06:09:11;;;;;;;14.32;2.47;;;3.70;92.20;;;;;;4986823;28;20034;-53
2021/01/13 06:11:40;;;;;;;14.35;2.28;;;3.80;92.20;;;;;;4987021;28;20535;-55
2021/01/13 06:14:08;;;;;;;9.93;1.73;;;3.80;92.30;;;;;;4973396;28;20039;-55
2021/01/13 06:16:35;;;;;;;10.02;1.75;;;3.80;92.40;;;;;;4983740;28;20142;-54
2021/01/13 06:19:02;;;;;;;10.57;2.55;;;3.70;92.40;;;;;;4974728;28;20058;-55
2021/01/13 06:21:28;;;;;;;13.80;2.13;;;3.80;92.50;;;;;;4990790;28;20049;-54
2021/01/13 06:23:55;;;;;;;12.48;2.00;;;3.80;92.50;;;;;;4974012;28;20137;-55
2021/01/13 06:26:21;;;;;;;10.43;1.75;;;3.80;92.50;;;;;;4988997;28;20129;-55
2021/01/13 06:32:18;;;;;;;9.48;1.67;;;3.80;92.70;;;;;;4964967;28;20151;-55
2021/01/13 06:35:21;;;;;;;11.07;1.75;;;3.70;92.90;;;;;;4991697;28;20121;-57
2021/01/13 06:37:51;;;;;;;14.70;2.03;;;3.70;92.80;;;;;;4973776;28;20077;-57
2021/01/13 06:40:18;;;;;;;11.23;1.90;;;3.80;92.70;;;;;;4986844;28;20515;-56
2021/01/13 06:42:44;;;;;;;11.18;2.00;;;3.80;92.70;;;;;;4988763;28;20460;-56
2021/01/13 06:45:11;;;;;;;10.63;2.10;;;3.70;92.70;;;;;;4982576;28;20046;-57
2021/01/13 06:47:54;;;;;;;5.97;1.65;;;3.70;92.60;;;;;;4982587;28;20046;-56
2021/01/13 06:50:36;;;;;;;13.05;2.05;;;3.80;92.70;;;;;;4983080;28;20035;-54
2021/01/13 06:53:09;;;;;;;10.77;2.03;;;3.70;92.70;;;;;;4981011;28;20038;-54
2021/01/13 06:55:37;;;;;;;11.23;1.92;;;3.70;92.70;;;;;;4982273;28;20407;-55
2021/01/13 06:58:11;;;;;;;12.35;2.13;;;3.80;92.60;;;;;;4992639;28;20034;-56
2021/01/13 07:00:37;;;;;;;10.50;1.63;;;3.70;92.50;;;;;;4982114;28;20058;-56
2021/01/13 07:03:18;;;;;;;13.07;2.10;;;3.80;92.40;;;;;;4980847;28;20503;-56
2021/01/13 07:05:44;;;;;;;12.88;2.28;;;3.70;92.40;;;;;;4986599;28;20506;-58
2021/01/13 07:08:09;;;;;;;14.48;2.15;;;3.80;92.50;;;;;;4989679;28;20132;-55
2021/01/13 07:10:37;;;;;;;6.85;1.50;;;3.80;92.50;;;;;;4988780;28;20046;-57
2021/01/13 07:13:05;;;;;;;11.98;1.83;;;3.80;92.40;;;;;;4987757;28;20039;-56
2021/01/13 07:15:33;;;;;;;6.15;1.42;;;3.80;92.40;;;;;;4989482;28;20046;-57
2021/01/13 07:18:01;;;;;;;10.07;2.10;;;3.80;92.40;;;;;;4987341;28;20049;-56
2021/01/13 07:20:29;;;;;;;12.93;1.80;;;3.80;92.40;;;;;;4987236;28;20113;-57
2021/01/13 07:22:57;;;;;;;7.63;1.60;;;3.80;92.40;;;;;;4987389;28;20030;-57
2021/01/13 07:25:23;;;;;;;11.57;2.00;;;3.80;92.40;;;;;;4984280;28;20053;-57
2021/01/13 07:27:51;;;;;;;10.77;2.08;;;3.80;92.40;;;;;;4989743;28;20050;-56
2021/01/13 07:30:18;;;;;;;11.50;2.03;;;3.70;92.30;;;;;;4988575;28;20061;-56
2021/01/13 07:32:55;;;;;;;15.43;2.13;;;3.70;92.40;;;;;;4988462;28;20049;-55
2021/01/13 07:35:30;;;;;;;14.00;2.20;;;3.70;92.40;;;;;;4987344;28;20034;-56
2021/01/13 07:38:12;;;;;;;16.95;2.40;;;3.70;92.40;;;;;;4989090;28;20038;-56
2021/01/13 07:41:02;;;;;;;15.07;2.58;;;3.70;92.40;;;;;;4989385;28;20448;-56
2021/01/13 07:43:46;;;;;;;11.80;2.42;;;3.60;92.30;;;;;;4985078;28;20068;-57
2021/01/13 07:46:26;;;;;;;11.25;1.70;;;3.60;92.30;;;;;;4988043;28;20121;-57
2021/01/13 07:49:10;;;;;;;14.20;1.80;;;3.50;92.30;;;;;;4987415;28;20121;-57
2021/01/13 07:51:49;;;;;;;20.75;3.13;;;3.60;92.30;;;;;;4987852;28;20054;-56
2021/01/13 07:54:30;;;;;;;12.38;2.35;;;3.50;92.10;;;;;;4983759;28;20133;-55
2021/01/13 07:56:58;;;;;;;15.35;2.28;;;3.60;92.10;;;;;;4990623;28;20093;-57
2021/01/13 08:00:02;;;;;;;11.10;2.60;;;3.60;92.00;;;;;;4990944;28;20046;-56
2021/01/13 08:02:45;;;;;;;13.43;2.20;;;3.60;92.00;;;;;;4985290;28;20408;-57
2021/01/13 08:05:21;;;;;;;16.33;2.03;;;3.60;92.00;;;;;;4967469;28;20046;-57
2021/01/13 08:08:00;;;;;;;10.90;2.83;;;3.60;91.90;;;;;;4972312;28;20065;-57
2021/01/13 08:10:29;;;;;;;16.13;2.53;;;3.70;91.80;;;;;;4978269;28;20507;-56
2021/01/13 08:13:22;;;;;;;15.95;1.85;;;3.70;91.80;;;;;;4977274;28;20038;-56
2021/01/13 08:16:24;;;;;;;9.93;2.10;;;3.80;91.90;;;;;;4983642;28;20080;-56
2021/01/13 08:19:35;;;;;;;14.75;2.03;;;3.80;91.90;;;;;;4980091;28;20081;-53
2021/01/13 08:22:01;;;;;;;11.98;1.65;;;3.90;91.90;;;;;;4978045;28;20077;-53
2021/01/13 08:24:33;;;;;;;13.65;2.05;;;3.90;91.70;;;;;;4986442;28;20411;-56
2021/01/13 08:27:00;;;;;;;11.07;1.80;;;3.90;91.50;;;;;;4987283;28;20450;-53
2021/01/13 08:29:34;;;;;;;8.73;1.98;;;3.80;91.60;;;;;;4984558;28;20133;-55
2021/01/13 08:32:08;;;;;;;13.50;2.30;;;3.70;91.90;;;;;;4971447;28;20117;-53
2021/01/13 08:34:41;;;;;;;8.77;1.75;;;3.70;92.30;;;;;;4970072;28;20494;-53
2021/01/13 08:37:08;;;;;;;11.30;1.55;;;3.70;92.40;;;;;;4982339;28;20058;-53
2021/01/13 08:39:34;;;;;;;12.88;1.50;;;3.70;92.50;;;;;;4975886;28;20041;-55
2021/01/13 08:42:21;;;;;;;14.15;2.22;;;3.60;92.50;;;;;;4978189;28;20114;-53
2021/01/13 08:44:49;;;;;;;11.98;2.17;;;3.60;92.60;;;;;;4990908;28;20058;-55
2021/01/13 08:47:15;;;;;;;10.75;2.05;;;3.60;92.60;;;;;;4989551;28;20497;-53
2021/01/13 08:49:44;;;;;;;12.95;1.90;;;3.60;92.70;;;;;;4973224;28;20420;-53
2021/01/13 08:52:16;;;;;;;11.95;2.08;;;3.60;92.90;;;;;;4985392;28;20480;-53
2021/01/13 08:55:06;;;;;;;19.77;2.13;;;3.60;92.90;;;;;;4977820;28;20042;-55
2021/01/13 08:57:53;;;;;;;12.45;2.10;;;3.60;92.90;;;;;;4965833;28;20054;-53
2021/01/13 09:00:20;;;;;;;12.65;2.00;;;3.70;92.90;;;;;;4975518;28;20403;-53
2021/01/13 09:03:00;;;;;;;10.95;1.90;;;3.70;92.90;;;;;;4976475;28;20509;-55
2021/01/13 09:05:34;;;;;;;13.43;2.05;;;3.80;93.10;;;;;;4980468;28;20522;-53
2021/01/13 09:08:02;;;;;;;11.23;1.80;;;3.80;93.20;;;;;;4989652;28;20045;-52
2021/01/13 09:10:54;;;;;;;11.30;1.85;;;3.90;93.10;;;;;;4980558;28;20046;-53
2021/01/13 09:13:34;;;;;;;12.48;2.00;;;4.00;93.30;;;;;;4976036;28;20144;-51
2021/01/13 09:16:21;;;;;;;17.17;2.63;;;4.00;93.10;;;;;;4979865;28;20089;-52
2021/01/13 09:19:04;;;;;;;14.55;2.70;;;4.10;93.00;;;;;;4974813;28;20043;-53
2021/01/13 09:21:32;;;;;;;10.85;2.03;;;4.10;93.00;;;;;;4974731;28;20122;-53
2021/01/13 09:23:59;;;;;;;11.73;2.10;;;4.10;92.90;;;;;;4975150;28;20057;-54
2021/01/13 09:26:34;;;;;;;11.25;2.20;;;4.00;92.80;;;;;;4976748;28;20046;-54
2021/01/13 09:29:04;;;;;;;15.35;2.42;;;4.00;92.90;;;;;;4977753;28;20047;-55
2021/01/13 09:31:30;;;;;;;13.05;1.98;;;4.00;93.00;;;;;;4975120;28;20423;-53
2021/01/13 09:33:57;;;;;;;15.63;2.83;;;4.00;93.10;;;;;;4980336;28;20077;-54
2021/01/13 09:36:23;;;;;;;17.15;2.15;;;3.90;93.20;;;;;;4979978;28;20047;-54
2021/01/13 09:38:49;;;;;;;14.93;2.20;;;3.90;93.30;;;;;;4976664;28;20123;-54
2021/01/13 09:41:25;;;;;;;11.60;2.03;;;3.90;93.40;;;;;;5003685;28;20041;-55
2021/01/13 09:44:13;;;;;;;18.17;2.25;;;4.00;93.30;;;;;;4978869;28;20053;-54
2021/01/13 09:46:40;;;;;;;15.50;2.55;;;4.00;93.20;;;;;;4977071;28;20046;-54
2021/01/13 09:49:10;;;;;;;15.88;2.25;;;4.00;93.20;;;;;;4986159;28;20120;-54
2021/01/13 09:51:38;;;;;;;16.80;2.50;;;4.10;93.30;;;;;;4981388;28;20055;-55
2021/01/13 09:54:05;;;;;;;14.80;3.13;;;4.10;93.40;;;;;;4978625;28;20039;-54
2021/01/13 09:56:32;;;;;;;25.48;2.85;;;4.20;93.40;;;;;;4982148;28;20121;-54
2021/01/13 09:59:02;;;;;;;19.80;2.65;;;4.30;93.30;;;;;;4981507;28;20046;-55
2021/01/13 10:01:29;;;;;;;19.08;2.63;;;4.50;93.40;;;;;;4987114;28;20043;-54
2021/01/13 10:03:57;;;;;;;18.27;2.58;;;4.60;93.20;;;;;;4974803;28;20035;-53
2021/01/13 10:06:27;;;;;;;11.50;2.25;;;4.70;93.00;;;;;;4978686;28;20050;-54
2021/01/13 10:08:56;;;;;;;21.80;2.47;;;4.70;92.80;;;;;;4982132;28;20034;-54
2021/01/13 10:11:27;;;;;;;17.10;2.28;;;4.70;92.20;;;;;;4960069;28;20393;-54
2021/01/13 10:13:58;;;;;;;14.07;2.28;;;4.70;92.50;;;;;;4977574;28;20050;-53
2021/01/13 10:16:25;;;;;;;9.55;1.48;;;4.80;92.20;;;;;;4972322;28;20364;-55
2021/01/13 10:18:59;;;;;;;14.98;1.98;;;4.70;91.90;;;;;;4985649;28;20073;-56
2021/01/13 10:21:33;;;;;;;9.07;1.90;;;4.70;91.80;;;;;;4980359;28;20416;-56
2021/01/13 10:24:09;;;;;;;10.05;2.15;;;4.80;91.80;;;;;;4982894;28;20038;-56
2021/01/13 10:26:36;;;;;;;11.23;1.75;;;4.70;92.20;;;;;;4976764;28;20047;-57
2021/01/13 10:29:03;;;;;;;14.15;2.20;;;4.80;92.30;;;;;;4982352;28;20043;-53
2021/01/13 10:31:29;;;;;;;10.60;2.00;;;4.80;92.10;;;;;;4988333;28;20050;-52
2021/01/13 10:33:56;;;;;;;10.05;1.95;;;4.80;92.20;;;;;;4987615;28;20043;-55
2021/01/13 10:36:41;;;;;;;11.88;1.80;;;4.80;92.20;;;;;;4945769;28;20046;-53
2021/01/13 10:39:20;;;;;;;17.25;2.60;;;4.70;92.20;;;;;;4981807;28;20046;-55
2021/01/13 10:41:51;;;;;;;16.48;2.10;;;4.80;92.10;;;;;;4992344;28;20090;-55
2021/01/13 10:44:23;;;;;;;11.38;1.90;;;4.80;92.00;;;;;;4978826;28;20039;-54
2021/01/13 10:47:04;;;;;;;13.70;2.10;;;4.90;92.10;;;;;;4973591;28;20050;-55
2021/01/13 10:49:41;;;;;;;13.80;1.70;;;4.90;91.80;;;;;;4986026;28;20039;-53
2021/01/13 10:52:19;;;;;;;12.68;1.90;;;4.90;91.50;;;;;;4987507;28;20153;-55
2021/01/13 10:54:47;;;;;;;11.77;1.77;;;4.90;91.60;;;;;;4980990;28;20113;-55
2021/01/13 10:57:14;;;;;;;11.27;1.70;;;4.90;91.50;;;;;;4987889;28;20042;-54
2021/01/13 10:59:42;;;;;;;9.02;1.88;;;5.00;91.40;;;;;;4984754;28;20398;-53
2021/01/13 11:02:13;;;;;;;13.13;2.10;;;4.90;91.20;;;;;;4985725;28;20133;-55
2021/01/13 11:04:46;;;;;;;14.40;2.25;;;4.90;91.10;;;;;;4995266;28;20570;-54
2021/01/13 11:07:17;;;;;;;12.48;2.00;;;4.90;91.20;;;;;;4981077;28;20486;-53
2021/01/13 11:09:48;;;;;;;10.98;1.73;;;4.90;91.10;;;;;;4989068;28;20039;-54
2021/01/13 11:12:19;;;;;;;8.18;1.70;;;4.90;91.00;;;;;;4961438;28;20141;-57
2021/01/13 11:14:47;;;;;;;14.18;1.95;;;4.90;91.20;;;;;;4977951;28;20042;-54
2021/01/13 11:17:21;;;;;;;11.25;1.50;;;4.90;91.30;;;;;;4987515;28;20104;-55
2021/01/13 11:19:56;;;;;;;5.80;1.40;;;4.90;91.10;;;;;;4981048;28;20042;-53
2021/01/13 11:22:46;;;;;;;9.68;1.90;;;5.00;91.00;;;;;;4980737;28;20126;-55
2021/01/13 11:25:22;;;;;;;10.90;2.40;;;5.00;91.10;;;;;;4978737;28;20121;-56
2021/01/13 11:28:17;;;;;;;8.82;2.00;;;5.10;91.10;;;;;;4979759;28;20047;-56
2021/01/13 11:30:47;;;;;;;7.82;1.52;;;5.10;91.10;;;;;;4972107;28;20442;-56
2021/01/13 11:33:14;;;;;;;10.02;1.75;;;5.10;91.10;;;;;;4976553;28;20479;-56
2021/01/13 11:35:42;;;;;;;6.95;1.50;;;5.10;91.00;;;;;;4980461;28;20038;-56
2021/01/13 11:38:33;;;;;;;10.90;1.77;;;5.00;90.80;;;;;;4981555;28;20518;-56
2021/01/13 11:41:33;;;;;;;14.73;2.22;;;5.10;91.30;;;;;;4985450;28;20038;-54
2021/01/13 11:44:23;;;;;;;11.88;2.28;;;5.20;91.50;;;;;;4979378;28;20373;-51
2021/01/13 11:47:13;;;;;;;11.45;2.13;;;5.30;91.20;;;;;;4971916;28;20038;-50
2021/01/13 11:49:49;;;;;;;13.55;1.90;;;5.30;91.30;;;;;;4961531;28;20042;-53
2021/01/13 11:52:16;;;;;;;9.30;1.38;;;5.30;91.20;;;;;;4973492;28;20046;-53
2021/01/13 11:54:47;;;;;;;14.43;1.80;;;5.20;91.20;;;;;;4982412;28;20081;-50
2021/01/13 11:57:22;;;;;;;9.15;1.60;;;5.20;91.30;;;;;;4976894;28;20430;-53
2021/01/13 11:59:52;;;;;;;7.53;1.92;;;5.30;90.50;;;;;;4972263;28;20059;-55
2021/01/13 12:02:30;;;;;;;9.77;1.40;;;5.20;90.60;;;;;;4980935;28;20514;-53
2021/01/13 12:04:55;;;;;;;4.75;1.30;;;5.10;90.70;;;;;;4974998;28;20043;-51
2021/01/13 12:07:21;;;;;;;8.55;2.00;;;5.10;91.00;;;;;;4984238;28;20048;-50
2021/01/13 12:10:13;;;;;;;6.78;1.30;;;5.10;91.10;;;;;;4979124;28;20034;-58
2021/01/13 12:12:40;;;;;;;12.38;1.75;;;5.10;91.00;;;;;;4966993;28;20062;-57
2021/01/13 12:15:10;;;;;;;8.60;1.73;;;5.10;91.20;;;;;;4992620;28;20065;-58
2021/01/13 12:17:50;;;;;;;5.57;1.35;;;5.20;91.30;;;;;;4961267;28;20054;-55
2021/01/13 12:20:30;;;;;;;6.43;1.42;;;5.10;91.30;;;;;;4972246;28;20047;-56
2021/01/13 12:22:55;;;;;;;8.40;1.50;;;5.20;91.40;;;;;;4988022;28;20077;-55
2021/01/13 12:25:26;;;;;;;11.40;1.58;;;5.20;91.40;;;;;;4974907;28;20061;-55
2021/01/13 12:28:06;;;;;;;6.50;1.20;;;5.20;91.20;;;;;;4974098;28;20074;-54
2021/01/13 12:30:31;;;;;;;6.57;1.50;;;5.20;91.20;;;;;;4987031;28;20134;-54
2021/01/13 12:33:00;;;;;;;5.72;1.30;;;5.20;91.30;;;;;;4990452;28;20113;-53
2021/01/13 12:35:30;;;;;;;8.73;1.40;;;5.20;91.30;;;;;;4959970;28;20270;-56
2021/01/13 12:37:56;;;;;;;8.57;1.65;;;5.30;91.50;;;;;;4979213;28;20125;-55
2021/01/13 12:40:32;;;;;;;5.95;1.00;;;5.30;91.50;;;;;;4989257;28;20466;-56
2021/01/13 12:43:17;;;;;;;11.38;1.80;;;5.40;91.00;;;;;;4963458;28;20046;-55
2021/01/13 12:45:44;;;;;;;7.63;1.45;;;5.40;91.00;;;;;;4987227;28;20070;-55
2021/01/13 12:48:10;;;;;;;9.70;1.40;;;5.40;90.90;;;;;;4981464;28;20487;-55
2021/01/13 12:50:36;;;;;;;6.75;2.35;;;5.50;91.00;;;;;;4989744;28;20539;-54
2021/01/13 12:53:02;;;;;;;8.25;1.30;;;5.50;90.90;;;;;;4988418;28;20049;-55
2021/01/13 12:55:29;;;;;;;6.05;1.33;;;5.60;91.00;;;;;;4980101;28;20070;-55
2021/01/13 12:57:56;;;;;;;9.82;1.30;;;5.70;90.70;;;;;;4967558;28;20479;-55
2021/01/13 13:00:22;;;;;;;5.88;1.17;;;5.70;90.60;;;;;;4993767;28;20113;-53
2021/01/13 13:02:48;;;;;;;5.53;1.20;;;5.70;90.30;;;;;;4973041;28;20073;-55
2021/01/13 13:05:15;;;;;;;7.53;1.17;;;5.70;90.20;;;;;;4990738;28;20085;-55
2021/01/13 13:07:41;;;;;;;9.55;1.27;;;5.70;90.30;;;;;;4995000;28;20458;-56
2021/01/13 13:10:07;;;;;;;9.75;1.30;;;5.70;90.50;;;;;;4993310;28;20050;-55
2021/01/13 13:12:33;;;;;;;8.45;1.58;;;5.70;90.80;;;;;;4992032;28;20509;-55
2021/01/13 13:14:58;;;;;;;15.20;1.85;;;5.60;90.80;;;;;;4992070;28;20038;-56
2021/01/13 13:17:24;;;;;;;8.32;1.30;;;5.60;91.40;;;;;;4990695;28;20089;-55
2021/01/13 13:19:49;;;;;;;8.43;1.40;;;5.60;91.00;;;;;;4990287;28;20238;-55
2021/01/13 13:22:17;;;;;;;9.73;1.95;;;5.60;91.30;;;;;;4989173;28;20041;-49
2021/01/13 13:24:42;;;;;;;10.18;1.77;;;5.60;91.10;;;;;;4993390;28;20038;-50
2021/01/13 13:27:09;;;;;;;12.40;1.50;;;5.60;90.90;;;;;;4995115;28;20549;-53
2021/01/13 13:29:36;;;;;;;9.30;1.77;;;5.60;90.50;;;;;;4989254;28;20041;-57
2021/01/13 13:32:03;;;;;;;8.73;1.70;;;5.60;90.20;;;;;;4992673;28;20045;-56
2021/01/13 13:34:29;;;;;;;14.10;2.38;;;5.60;90.30;;;;;;4990101;28;20054;-51